createdAt,value
2022-12-24T00:01:54.219Z,11.40
2022-12-24T00:04:21.346Z,11.40
2022-12-24T00:06:48.554Z,11.50
2022-12-24T00:09:15.903Z,11.40
2022-12-24T00:11:43.015Z,11.40
2022-12-24T00:14:10.205Z,11.40
2022-12-24T00:16:37.420Z,11.40
2022-12-24T00:19:04.659Z,11.40
2022-12-24T00:21:31.859Z,11.40
2022-12-24T00:23:58.984Z,11.40
2022-12-24T00:26:26.150Z,11.40
2022-12-24T00:28:53.874Z,11.40
2022-12-24T00:31:21.063Z,11.40
2022-12-24T00:33:48.443Z,11.40
2022-12-24T00:36:15.764Z,11.40
2022-12-24T00:38:43.147Z,11.40
2022-12-24T00:41:24.808Z,11.50
2022-12-24T00:43:56.543Z,11.40
2022-12-24T00:46:24.535Z,11.40
2022-12-24T00:48:52.247Z,11.40
2022-12-24T00:51:20.001Z,11.40
2022-12-24T00:53:47.629Z,11.50
2022-12-24T00:56:14.725Z,11.40
2022-12-24T00:58:41.868Z,11.40
2022-12-24T01:01:09.248Z,11.40
2022-12-24T01:03:36.509Z,11.40
2022-12-24T01:06:04.828Z,11.40
2022-12-24T01:08:32.061Z,11.40
2022-12-24T01:10:59.528Z,11.50
2022-12-24T01:13:26.690Z,11.50
2022-12-24T01:15:53.883Z,11.40
2022-12-24T01:18:21.141Z,11.40
2022-12-24T01:21:01.860Z,11.40
2022-12-24T01:23:30.095Z,11.40
2022-12-24T01:26:00.942Z,11.40
2022-12-24T01:28:28.281Z,11.40
2022-12-24T01:30:55.508Z,11.40
2022-12-24T01:33:22.731Z,11.40
2022-12-24T01:35:49.954Z,11.40
2022-12-24T01:38:17.014Z,11.40
2022-12-24T01:41:02.610Z,11.40
2022-12-24T01:43:32.538Z,11.40
2022-12-24T01:46:16.385Z,11.40
2022-12-24T01:48:51.926Z,11.40
2022-12-24T01:51:24.376Z,11.40
2022-12-24T01:53:53.506Z,11.40
2022-12-24T01:56:21.155Z,11.40
2022-12-24T01:58:51.753Z,11.40
2022-12-24T02:01:19.003Z,11.40
2022-12-24T02:03:46.305Z,11.40
2022-12-24T02:06:17.741Z,11.40
2022-12-24T02:08:45.062Z,11.40
2022-12-24T02:11:16.080Z,11.40
2022-12-24T02:13:45.135Z,11.40
2022-12-24T02:16:21.584Z,11.40
2022-12-24T02:19:24.413Z,11.40
2022-12-24T02:21:58.827Z,11.40
2022-12-24T02:24:38.247Z,11.40
2022-12-24T02:27:05.411Z,11.40
2022-12-24T02:29:35.660Z,11.40
2022-12-24T02:32:06.048Z,11.40
2022-12-24T02:34:38.758Z,11.30
2022-12-24T02:37:13.997Z,11.40
2022-12-24T02:39:47.379Z,11.40
2022-12-24T02:42:16.478Z,11.40
2022-12-24T02:44:46.734Z,11.30
2022-12-24T02:47:14.654Z,11.30
2022-12-24T02:49:43.795Z,11.30
2022-12-24T02:52:29.660Z,11.30
2022-12-24T02:54:58.594Z,11.30
2022-12-24T02:57:36.585Z,11.30
2022-12-24T03:00:15.769Z,11.30
2022-12-24T03:02:43.042Z,11.30
2022-12-24T03:05:20.934Z,11.30
2022-12-24T03:08:03.261Z,11.30
2022-12-24T03:10:41.213Z,11.20
2022-12-24T03:13:14.286Z,11.20
2022-12-24T03:15:42.037Z,11.20
2022-12-24T03:18:10.462Z,11.20
2022-12-24T03:21:07.107Z,11.20
2022-12-24T03:23:34.924Z,11.20
2022-12-24T03:26:04.808Z,11.30
2022-12-24T03:28:32.353Z,11.20
2022-12-24T03:31:01.706Z,11.20
2022-12-24T03:33:29.014Z,11.20
2022-12-24T03:35:56.133Z,11.20
2022-12-24T03:38:23.332Z,11.20
2022-12-24T03:40:50.475Z,11.20
2022-12-24T03:43:17.643Z,11.20
2022-12-24T03:45:44.914Z,11.20
2022-12-24T03:48:12.125Z,11.30
2022-12-24T03:50:39.289Z,11.30
2022-12-24T03:53:06.464Z,11.30
2022-12-24T03:55:33.534Z,11.30
2022-12-24T03:58:00.676Z,11.30
2022-12-24T04:00:27.853Z,11.30
2022-12-24T04:02:55.033Z,11.30
2022-12-24T04:05:22.410Z,11.30
2022-12-24T04:07:49.651Z,11.30
2022-12-24T04:10:17.263Z,11.30
2022-12-24T04:12:44.430Z,11.30
2022-12-24T04:15:11.965Z,11.30
2022-12-24T04:17:39.147Z,11.30
2022-12-24T04:20:06.702Z,11.30
2022-12-24T04:22:33.908Z,11.30
2022-12-24T04:25:01.129Z,11.30
2022-12-24T04:27:30.705Z,11.30
2022-12-24T04:29:58.043Z,11.30
2022-12-24T04:32:26.074Z,11.30
2022-12-24T04:34:53.300Z,11.30
2022-12-24T04:37:20.665Z,11.30
2022-12-24T04:39:47.885Z,11.30
2022-12-24T04:42:15.545Z,11.30
2022-12-24T04:44:42.647Z,11.30
2022-12-24T04:47:10.894Z,11.30
2022-12-24T04:49:38.148Z,11.30
2022-12-24T04:52:05.308Z,11.30
2022-12-24T04:54:32.493Z,11.30
2022-12-24T04:56:59.807Z,11.30
2022-12-24T04:59:26.995Z,11.30
2022-12-24T05:01:54.399Z,11.30
2022-12-24T05:04:21.757Z,11.30
2022-12-24T05:06:48.830Z,11.30
2022-12-24T05:09:15.922Z,11.30
2022-12-24T05:11:43.105Z,11.30
2022-12-24T05:14:10.183Z,11.30
2022-12-24T05:16:38.756Z,11.30
2022-12-24T05:19:05.951Z,11.30
2022-12-24T05:21:33.084Z,11.30
2022-12-24T05:24:18.801Z,11.30
2022-12-24T05:26:48.490Z,11.30
2022-12-24T05:29:15.627Z,11.30
2022-12-24T05:31:43.595Z,11.30
2022-12-24T05:34:11.399Z,11.30
2022-12-24T05:36:38.482Z,11.20
2022-12-24T05:39:11.620Z,11.30
2022-12-24T05:41:40.852Z,11.20
2022-12-24T05:44:08.087Z,11.30
2022-12-24T05:46:35.346Z,11.20
2022-12-24T05:49:02.662Z,11.20
2022-12-24T05:51:29.858Z,11.20
2022-12-24T05:53:57.033Z,11.20
2022-12-24T05:56:24.745Z,11.20
2022-12-24T05:58:53.457Z,11.20
2022-12-24T06:01:21.806Z,11.20
2022-12-24T06:03:51.938Z,11.20
2022-12-24T06:06:23.051Z,11.20
2022-12-24T06:08:50.935Z,11.20
2022-12-24T06:11:18.978Z,11.20
2022-12-24T06:13:46.519Z,11.20
2022-12-24T06:16:14.923Z,11.20
2022-12-24T06:18:42.237Z,11.20
2022-12-24T06:21:09.771Z,11.20
2022-12-24T06:23:38.166Z,11.20
2022-12-24T06:26:06.436Z,11.20
2022-12-24T06:28:34.935Z,11.20
2022-12-24T06:31:03.712Z,11.20
2022-12-24T06:33:31.763Z,11.20
2022-12-24T06:35:59.056Z,11.20
2022-12-24T06:38:26.195Z,11.20
2022-12-24T06:40:55.845Z,11.20
2022-12-24T06:43:23.260Z,11.20
2022-12-24T06:45:50.457Z,11.20
2022-12-24T06:48:17.880Z,11.20
2022-12-24T06:50:45.070Z,11.10
2022-12-24T06:53:12.219Z,11.20
2022-12-24T06:55:39.512Z,11.20
2022-12-24T06:58:06.721Z,11.20
2022-12-24T07:00:33.964Z,11.20
2022-12-24T07:03:01.119Z,11.10
2022-12-24T07:05:28.506Z,11.10
2022-12-24T07:07:56.044Z,11.10
2022-12-24T07:10:23.332Z,11.20
2022-12-24T07:12:50.619Z,11.20
2022-12-24T07:15:17.839Z,11.20
2022-12-24T07:17:45.100Z,11.20
2022-12-24T07:20:14.970Z,11.20
2022-12-24T07:22:42.862Z,11.20
2022-12-24T07:25:10.525Z,11.20
2022-12-24T07:27:38.137Z,11.20
2022-12-24T07:30:05.620Z,11.20
2022-12-24T07:32:32.927Z,11.20
2022-12-24T07:35:00.184Z,11.20
2022-12-24T07:37:27.348Z,11.20
2022-12-24T07:39:54.605Z,11.20
2022-12-24T07:42:22.014Z,11.20
2022-12-24T07:44:49.824Z,11.20
2022-12-24T07:47:17.088Z,11.20
2022-12-24T07:49:44.265Z,11.20
2022-12-24T07:52:11.434Z,11.20
2022-12-24T07:54:38.585Z,11.20
2022-12-24T07:57:05.712Z,11.20
2022-12-24T07:59:32.859Z,11.30
2022-12-24T08:02:00.180Z,11.30
2022-12-24T08:04:27.590Z,11.30
2022-12-24T08:06:54.726Z,11.30
2022-12-24T08:09:22.557Z,11.40
2022-12-24T08:11:52.402Z,11.30
2022-12-24T08:14:19.946Z,11.30
2022-12-24T08:16:47.266Z,11.30
2022-12-24T08:19:14.710Z,11.30
2022-12-24T08:21:41.937Z,11.30
2022-12-24T08:24:09.195Z,11.30
2022-12-24T08:26:36.282Z,11.30
2022-12-24T08:29:03.780Z,11.40
2022-12-24T08:31:31.308Z,11.50
2022-12-24T08:33:58.578Z,11.50
2022-12-24T08:36:25.726Z,11.50
2022-12-24T08:38:52.904Z,11.40
2022-12-24T08:41:21.928Z,11.40
2022-12-24T08:43:49.101Z,11.40
2022-12-24T08:46:16.432Z,11.40
2022-12-24T08:48:43.652Z,11.50
2022-12-24T08:51:11.583Z,11.50
2022-12-24T08:53:39.524Z,11.50
2022-12-24T08:56:10.229Z,11.50
2022-12-24T08:58:37.409Z,11.60
2022-12-24T09:01:15.447Z,11.60
2022-12-24T09:03:42.817Z,11.40
2022-12-24T09:06:10.535Z,11.30
2022-12-24T09:08:37.818Z,11.00
2022-12-24T09:11:05.797Z,10.90
2022-12-24T09:13:32.976Z,10.80
2022-12-24T09:16:00.128Z,10.50
2022-12-24T09:18:27.660Z,10.40
2022-12-24T09:21:01.946Z,10.30
2022-12-24T09:23:29.774Z,10.40
2022-12-24T09:25:57.310Z,10.40
2022-12-24T09:28:24.403Z,10.40
2022-12-24T09:30:59.452Z,10.50
2022-12-24T09:33:26.918Z,10.70
2022-12-24T09:35:54.306Z,10.90
2022-12-24T09:38:22.103Z,11.00
2022-12-24T09:40:49.588Z,11.10
2022-12-24T09:43:16.803Z,11.10
2022-12-24T09:45:52.377Z,11.20
2022-12-24T09:48:24.227Z,11.20
2022-12-24T09:51:09.865Z,11.20
2022-12-24T09:53:37.011Z,11.20
2022-12-24T09:56:06.887Z,11.00
2022-12-24T09:58:36.455Z,10.90
2022-12-24T10:01:03.875Z,10.90
2022-12-24T10:03:31.701Z,10.80
2022-12-24T10:05:59.024Z,10.80
2022-12-24T10:08:35.131Z,10.80
2022-12-24T10:11:20.830Z,10.80
2022-12-24T10:13:54.657Z,10.70
2022-12-24T10:16:32.436Z,10.50
2022-12-24T10:19:02.322Z,10.50
2022-12-24T10:21:37.387Z,10.40
2022-12-24T10:24:15.906Z,10.40
2022-12-24T10:26:48.476Z,10.30
2022-12-24T10:29:18.789Z,10.40
2022-12-24T10:31:54.993Z,10.50
2022-12-24T10:34:23.255Z,10.40
2022-12-24T10:36:50.866Z,10.30
2022-12-24T10:39:22.747Z,10.40
2022-12-24T10:41:51.039Z,10.90
2022-12-24T10:44:20.656Z,11.30
2022-12-24T10:46:47.929Z,11.50
2022-12-24T10:49:20.132Z,11.60
2022-12-24T10:51:52.551Z,11.80
2022-12-24T10:54:26.558Z,12.00
2022-12-24T10:56:58.272Z,12.10
2022-12-24T10:59:36.669Z,12.20
2022-12-24T11:02:04.046Z,12.30
2022-12-24T11:04:32.623Z,12.50
2022-12-24T11:07:05.310Z,12.60
2022-12-24T11:09:34.402Z,12.40
2022-12-24T11:12:08.627Z,13.00
2022-12-24T11:14:40.053Z,13.40
2022-12-24T11:17:07.252Z,13.40
2022-12-24T11:19:41.665Z,13.20
2022-12-24T11:22:17.930Z,13.30
2022-12-24T11:24:49.931Z,13.30
2022-12-24T11:27:28.085Z,13.30
2022-12-24T11:30:13.570Z,13.20
2022-12-24T11:32:41.717Z,13.20
2022-12-24T11:35:21.667Z,13.10
2022-12-24T11:38:09.078Z,13.10
2022-12-24T11:40:47.576Z,13.00
2022-12-24T11:43:21.915Z,13.00
2022-12-24T11:45:56.177Z,12.90
2022-12-24T11:48:28.732Z,12.90
2022-12-24T11:51:00.076Z,12.90
2022-12-24T11:53:39.806Z,13.00
2022-12-24T11:56:12.868Z,12.90
2022-12-24T11:58:40.065Z,13.00
2022-12-24T12:01:22.727Z,13.20
2022-12-24T12:04:01.289Z,13.40
2022-12-24T12:06:46.948Z,13.40
2022-12-24T12:09:26.532Z,13.40
2022-12-24T12:11:56.664Z,13.40
2022-12-24T12:14:36.676Z,13.40
2022-12-24T12:17:07.736Z,13.30
2022-12-24T12:19:47.583Z,13.30
2022-12-24T12:22:26.123Z,13.20
2022-12-24T12:24:53.735Z,13.20
2022-12-24T12:27:25.575Z,13.20
2022-12-24T12:29:56.851Z,13.10
2022-12-24T12:32:42.172Z,13.00
2022-12-24T12:35:17.033Z,12.90
2022-12-24T12:37:47.888Z,12.90
2022-12-24T12:40:16.536Z,12.80
2022-12-24T12:42:55.581Z,12.80
2022-12-24T12:45:22.702Z,12.70
2022-12-24T12:48:02.000Z,12.80
2022-12-24T12:50:34.926Z,12.70
2022-12-24T12:53:23.653Z,12.80
2022-12-24T12:55:50.872Z,12.80
2022-12-24T12:58:18.034Z,12.80
2022-12-24T13:00:47.375Z,12.70
2022-12-24T13:03:34.838Z,12.80
2022-12-24T13:06:04.869Z,12.70
2022-12-24T13:08:32.050Z,12.80
2022-12-24T13:11:02.228Z,12.70
2022-12-24T13:13:32.390Z,12.70
2022-12-24T13:15:59.583Z,12.70
2022-12-24T13:18:26.699Z,12.80
2022-12-24T13:20:54.067Z,12.80
2022-12-24T13:23:22.615Z,13.40
2022-12-24T13:25:51.322Z,13.30
2022-12-24T13:28:31.805Z,13.30
2022-12-24T13:31:01.806Z,13.30
2022-12-24T13:33:37.927Z,13.30
2022-12-24T13:36:05.230Z,13.20
2022-12-24T13:38:35.479Z,13.20
2022-12-24T13:41:21.438Z,13.10
2022-12-24T13:44:13.109Z,13.10
2022-12-24T13:46:56.941Z,13.00
2022-12-24T13:49:29.051Z,13.00
2022-12-24T13:52:08.244Z,12.90
2022-12-24T13:54:36.057Z,12.90
2022-12-24T13:57:22.582Z,12.90
2022-12-24T13:59:56.692Z,12.90
2022-12-24T14:02:24.083Z,12.80
2022-12-24T14:04:51.827Z,12.80
2022-12-24T14:07:19.586Z,12.80
2022-12-24T14:09:48.871Z,12.80
2022-12-24T14:12:30.450Z,12.70
2022-12-24T14:14:57.635Z,12.80
2022-12-24T14:17:25.632Z,12.70
2022-12-24T14:19:54.121Z,12.70
2022-12-24T14:22:32.980Z,12.80
2022-12-24T14:25:17.131Z,12.80
2022-12-24T14:27:46.389Z,12.70
2022-12-24T14:30:18.767Z,12.70
2022-12-24T14:32:46.403Z,12.60
2022-12-24T14:35:13.519Z,12.70
2022-12-24T14:37:41.884Z,12.80
2022-12-24T14:40:14.260Z,12.50
2022-12-24T14:42:41.373Z,12.30
2022-12-24T14:45:08.651Z,12.20
2022-12-24T14:47:40.403Z,12.10
2022-12-24T14:50:19.781Z,12.20
2022-12-24T14:53:22.388Z,12.10
2022-12-24T14:55:51.614Z,12.00
2022-12-24T14:58:23.173Z,11.90
2022-12-24T15:00:52.144Z,11.90
2022-12-24T15:03:21.367Z,11.90
2022-12-24T15:05:56.667Z,11.80
2022-12-24T15:08:27.303Z,11.80
2022-12-24T15:10:55.529Z,11.80
2022-12-24T15:13:36.998Z,11.80
2022-12-24T15:16:16.700Z,11.80
2022-12-24T15:18:46.471Z,11.80
2022-12-24T15:21:19.789Z,11.70
2022-12-24T15:23:49.038Z,11.70
2022-12-24T15:26:20.066Z,11.70
2022-12-24T15:28:47.680Z,11.60
2022-12-24T15:31:16.533Z,11.70
2022-12-24T15:33:47.535Z,11.70
2022-12-24T15:36:16.315Z,11.60
2022-12-24T15:38:45.116Z,11.60
2022-12-24T15:41:35.201Z,11.60
2022-12-24T15:44:04.286Z,11.60
2022-12-24T15:46:32.207Z,11.50
2022-12-24T15:49:01.074Z,11.60
2022-12-24T15:51:30.370Z,11.60
2022-12-24T15:53:59.072Z,11.50
2022-12-24T15:56:36.720Z,11.60
2022-12-24T15:59:17.785Z,11.50
2022-12-24T16:01:46.204Z,11.50
2022-12-24T16:04:15.044Z,11.50
2022-12-24T16:06:53.441Z,11.50
2022-12-24T16:09:30.284Z,11.40
2022-12-24T16:12:02.876Z,11.40
2022-12-24T16:14:31.844Z,11.40
2022-12-24T16:16:59.063Z,11.40
2022-12-24T16:19:37.698Z,11.40
2022-12-24T16:22:25.738Z,11.40
2022-12-24T16:24:55.496Z,11.40
2022-12-24T16:27:22.714Z,11.60
2022-12-24T16:29:50.381Z,12.20
2022-12-24T16:32:26.939Z,12.80
2022-12-24T16:34:54.165Z,12.80
2022-12-24T16:37:21.338Z,12.50
2022-12-24T16:39:48.603Z,12.30
2022-12-24T16:42:34.385Z,12.10
2022-12-24T16:45:01.569Z,12.00
2022-12-24T16:47:33.776Z,12.00
2022-12-24T16:50:05.719Z,11.90
2022-12-24T16:52:35.724Z,11.90
2022-12-24T16:55:02.847Z,11.90
2022-12-24T16:57:33.195Z,11.80
2022-12-24T17:00:02.430Z,11.80
2022-12-24T17:02:29.752Z,11.80
2022-12-24T17:04:57.299Z,11.80
2022-12-24T17:07:24.472Z,11.80
2022-12-24T17:09:51.632Z,11.80
2022-12-24T17:12:18.775Z,12.30
2022-12-24T17:14:45.959Z,12.20
2022-12-24T17:17:21.685Z,12.20
2022-12-24T17:19:48.854Z,12.40
2022-12-24T17:22:16.187Z,12.40
2022-12-24T17:24:43.566Z,12.30
2022-12-24T17:27:10.731Z,12.30
2022-12-24T17:29:37.862Z,12.20
2022-12-24T17:32:05.146Z,12.20
2022-12-24T17:34:32.429Z,12.10
2022-12-24T17:36:59.602Z,12.40
2022-12-24T17:39:28.046Z,12.30
2022-12-24T17:41:55.392Z,12.20
2022-12-24T17:44:22.598Z,12.00
2022-12-24T17:46:49.859Z,12.00
2022-12-24T17:49:17.138Z,11.90
2022-12-24T17:51:45.944Z,11.90
2022-12-24T17:54:13.748Z,11.80
2022-12-24T17:56:41.075Z,11.80
2022-12-24T17:59:08.229Z,11.80
2022-12-24T18:01:35.491Z,11.80
2022-12-24T18:04:03.310Z,11.70
2022-12-24T18:06:30.782Z,11.80
2022-12-24T18:08:57.935Z,11.70
2022-12-24T18:11:29.470Z,11.70
2022-12-24T18:13:57.050Z,12.10
2022-12-24T18:16:26.242Z,12.20
2022-12-24T18:18:54.318Z,12.10
2022-12-24T18:21:22.508Z,12.00
2022-12-24T18:23:50.369Z,12.00
2022-12-24T18:26:18.342Z,11.90
2022-12-24T18:28:45.568Z,11.90
2022-12-24T18:31:14.234Z,11.90
2022-12-24T18:33:41.493Z,11.80
2022-12-24T18:36:09.147Z,11.80
2022-12-24T18:38:36.447Z,11.80
2022-12-24T18:41:05.024Z,11.70
2022-12-24T18:43:32.209Z,11.70
2022-12-24T18:45:59.497Z,11.70
2022-12-24T18:48:26.752Z,11.70
2022-12-24T18:50:57.552Z,11.70
2022-12-24T18:53:25.371Z,11.70
2022-12-24T19:08:37.747Z,11.80
2022-12-24T19:10:58.369Z,11.70
2022-12-24T19:13:25.878Z,11.70
2022-12-24T19:15:54.487Z,11.70
2022-12-24T19:18:21.966Z,11.60
2022-12-24T19:20:49.466Z,11.60
2022-12-24T19:23:16.902Z,11.60
2022-12-24T19:25:44.220Z,11.60
2022-12-24T19:28:14.310Z,11.60
2022-12-24T19:30:42.954Z,11.60
2022-12-24T19:33:10.717Z,11.60
2022-12-24T19:35:38.466Z,11.60
2022-12-24T19:38:08.210Z,11.60
2022-12-24T19:40:37.582Z,11.70
2022-12-24T19:43:05.866Z,11.70
2022-12-24T19:45:33.204Z,11.70
2022-12-24T19:48:00.590Z,11.60
2022-12-24T19:50:27.996Z,11.60
2022-12-24T19:52:55.773Z,11.60
2022-12-24T19:55:23.299Z,11.60
2022-12-24T19:57:54.956Z,11.50
2022-12-24T20:00:22.396Z,11.60
2022-12-24T20:02:49.918Z,11.50
2022-12-24T20:05:17.547Z,11.50
2022-12-24T20:07:48.076Z,11.50
2022-12-24T20:10:18.451Z,11.50
2022-12-24T20:12:45.869Z,11.50
2022-12-24T20:15:13.185Z,11.40
2022-12-24T20:17:40.545Z,11.50
2022-12-24T20:20:08.443Z,11.40
2022-12-24T20:22:35.788Z,11.50
2022-12-24T20:25:03.183Z,11.40
2022-12-24T20:27:30.700Z,11.40
2022-12-24T20:29:58.115Z,11.40
2022-12-24T20:32:25.477Z,11.50
2022-12-24T20:34:52.814Z,11.50
2022-12-24T20:37:20.136Z,11.50
2022-12-24T20:39:47.439Z,11.40
2022-12-24T20:42:14.896Z,11.50
2022-12-24T20:44:42.420Z,11.50
2022-12-24T20:47:09.685Z,11.50
2022-12-24T20:49:37.018Z,11.50
2022-12-24T20:52:04.580Z,11.50
2022-12-24T20:54:32.009Z,11.50
2022-12-24T20:56:59.385Z,11.50
2022-12-24T20:59:26.815Z,11.50
2022-12-24T21:01:54.336Z,11.50
2022-12-24T21:04:21.829Z,11.50
2022-12-24T21:06:49.153Z,11.50
2022-12-24T21:09:16.527Z,11.50
2022-12-24T21:11:49.667Z,11.50
2022-12-24T21:14:22.519Z,11.50
2022-12-24T21:16:50.977Z,11.60
2022-12-24T21:19:22.284Z,11.60
2022-12-24T21:21:52.517Z,11.60
2022-12-24T21:24:19.956Z,11.60
2022-12-24T21:26:47.823Z,11.50
2022-12-24T21:29:18.274Z,11.60
2022-12-24T21:31:47.466Z,11.50
2022-12-24T21:34:14.976Z,11.50
2022-12-24T21:36:42.680Z,11.50
2022-12-24T21:39:10.103Z,11.50
2022-12-24T21:41:37.443Z,11.50
2022-12-24T21:44:04.991Z,11.50
2022-12-24T21:46:32.445Z,11.60
2022-12-24T21:49:18.264Z,11.60
2022-12-24T21:51:48.705Z,11.60
2022-12-24T21:54:31.218Z,11.60
2022-12-24T21:57:19.756Z,11.50
2022-12-24T21:59:49.997Z,11.50
2022-12-24T22:02:17.717Z,11.40
2022-12-24T22:04:45.477Z,11.40
2022-12-24T22:07:43.769Z,11.40
2022-12-24T22:10:33.361Z,11.40
2022-12-24T22:13:06.139Z,11.40
2022-12-24T22:15:35.009Z,11.40
2022-12-24T22:18:02.740Z,11.40
2022-12-24T22:20:30.204Z,11.40
2022-12-24T22:22:57.613Z,11.40
2022-12-24T22:25:24.983Z,11.40
2022-12-24T22:27:52.468Z,11.40
2022-12-24T22:30:19.976Z,11.40
2022-12-24T22:32:48.684Z,11.40
2022-12-24T22:35:16.443Z,11.40
2022-12-24T22:37:44.177Z,11.40
2022-12-24T22:40:12.788Z,11.40
2022-12-24T22:42:41.692Z,11.40
2022-12-24T22:45:13.375Z,11.40
2022-12-24T22:47:43.086Z,11.40
2022-12-24T22:50:10.791Z,11.40
2022-12-24T22:52:38.223Z,11.40
2022-12-24T22:55:08.816Z,11.40
2022-12-24T22:57:36.140Z,11.40
2022-12-24T23:00:09.675Z,11.40
2022-12-24T23:02:37.207Z,11.40
2022-12-24T23:05:05.062Z,11.40
2022-12-24T23:07:32.391Z,11.40
2022-12-24T23:09:59.939Z,11.40
2022-12-24T23:12:45.877Z,11.40
2022-12-24T23:15:13.268Z,11.40
2022-12-24T23:17:40.609Z,11.40
2022-12-24T23:20:08.682Z,11.40
2022-12-24T23:22:36.127Z,11.40
2022-12-24T23:25:03.961Z,11.40
2022-12-24T23:27:31.284Z,11.40
2022-12-24T23:29:58.697Z,11.40
2022-12-24T23:32:26.075Z,11.40
2022-12-24T23:34:53.498Z,11.40
2022-12-24T23:37:20.835Z,11.30
2022-12-24T23:39:48.313Z,11.30
2022-12-24T23:42:15.666Z,11.30
2022-12-24T23:44:43.049Z,11.30
2022-12-24T23:47:10.447Z,11.30
2022-12-24T23:49:37.774Z,11.30
2022-12-24T23:52:05.318Z,11.30
2022-12-24T23:54:32.621Z,11.30
2022-12-24T23:57:02.805Z,11.30
2022-12-24T23:59:32.846Z,11.20
